Hamburg Express — DFKM2 — position and weather

sailwx.info

Track history (hours):
 
Tides and Currents Weather Stations Pressure Air Temp Water Temp Dewpoint Dewpoint Depression Visibility Wind Speed Wind Dir Waves Ship Positions

Hamburg Express

Last reported at 2017-Mar-26 10:33 UTC. Time now 2017-Mar-26 11:13 UTC.
Position N 53°18' E 004°37'.

Length 366 m; draft 12.9 m.

Type: Cargo ship. MMSI: 218774000.

Date/timePositionNaut miles runAvg speedWind from/ knotsBaromVisibWave heightAir tempDewpointWater temp
2017-Mar-26 10:33N 53°18' E 004°37'1313.1
2017-Mar-26 09:33N 53°06' E 004°27'1313.3
2017-Mar-26 08:33N 52°55' E 004°16'1313.2
2017-Mar-26 07:33N 52°43' E 004°06'1413.6
2017-Mar-26 06:33N 52°31' E 003°55'1414.1
2017-Mar-26 05:33N 52°17' E 003°52'1413.9
2017-Mar-26 04:33N 52°03' E 003°54'8 8.2
2017-Mar-26 03:34N 51°58' E 004°04'3 2.6
2017-Mar-26 02:34N 51°58' E 004°00'1 0.6
2017-Mar-26 01:34N 51°57' E 003°59'0 0.0
2017-Mar-26 00:33N 51°57' E 003°59'0 0.0
2017-Mar-25 23:33N 51°57' E 003°59'0 0.0
2017-Mar-25 22:33N 51°57' E 003°59'0 0.0
2017-Mar-25 21:33N 51°57' E 003°59'0 0.0
2017-Mar-25 20:33N 51°57' E 003°59'0 0.0
2017-Mar-25 19:33N 51°57' E 003°59'0 0.0
2017-Mar-25 18:33N 51°57' E 003°59'0 0.0
2017-Mar-25 17:33N 51°57' E 003°59'0 0.0
2017-Mar-25 16:33N 51°57' E 003°59'0 0.0
2017-Mar-25 15:33N 51°57' E 003°59'0 0.0
2017-Mar-25 14:33N 51°57' E 003°59'0 0.0
2017-Mar-25 13:33N 51°57' E 003°59'0 0.0
2017-Mar-25 12:33N 51°57' E 003°59'0 0.0
2017-Mar-25 11:33N 51°57' E 003°59'0 0.0
2017-Mar-25 10:33N 51°57' E 003°59'0 0.0
2017-Mar-25 09:33N 51°57' E 003°59'0 0.0
2017-Mar-25 08:33N 51°57' E 003°59'0 0.0
2017-Mar-25 07:33N 51°57' E 003°59'0 0.0
2017-Mar-25 06:33N 51°57' E 003°59'0 0.0
2017-Mar-25 05:33N 51°57' E 003°59'0 0.0
2017-Mar-25 04:33N 51°57' E 003°59'0 0.0
2017-Mar-25 03:33N 51°57' E 003°59'0 0.0
2017-Mar-25 02:33N 51°57' E 003°59'0 0.0
2017-Mar-25 01:33N 51°57' E 003°59'0 0.0
2017-Mar-25 00:33N 51°57' E 003°59'0 0.0
2017-Mar-24 23:33N 51°57' E 003°59'0 0.0
2017-Mar-24 22:33N 51°57' E 003°59'1 1.4
2017-Mar-24 21:33N 51°58' E 003°60'0 0.3
2017-Mar-24 20:31N 51°58' E 003°59'0 0.0
2017-Mar-24 19:31N 51°58' E 003°59'0 0.0
2017-Mar-24 18:31N 51°58' E 003°59'0 0.0
2017-Mar-24 17:31N 51°58' E 003°59'0 0.0
2017-Mar-24 16:31N 51°58' E 003°59'0 0.0
2017-Mar-24 15:31N 51°58' E 003°59'0 0.0
2017-Mar-24 14:31N 51°58' E 003°59'0 0.0
2017-Mar-24 13:31N 51°58' E 003°59'0 0.0
2017-Mar-24 12:31N 51°58' E 003°59'0 0.0
2017-Mar-24 11:31N 51°58' E 003°59'0 0.0
2017-Mar-24 10:31N 51°58' E 003°59'0 0.0
2017-Mar-24 09:31N 51°58' E 003°59'0 0.0
2017-Mar-24 08:31N 51°58' E 003°59'0 0.0
2017-Mar-24 07:31N 51°58' E 003°59'0 0.0
2017-Mar-24 06:28N 51°58' E 003°59'0 0.0
2017-Mar-24 05:31N 51°58' E 003°59'0 0.0
2017-Mar-24 04:31N 51°58' E 003°59'0 0.0
2017-Mar-24 03:31N 51°58' E 003°59'0 0.0
2017-Mar-24 02:31N 51°58' E 003°59'0 0.0
2017-Mar-24 01:31N 51°58' E 003°59'0 0.0
2017-Mar-24 00:31N 51°58' E 003°59'0 0.0
2017-Mar-23 23:31N 51°58' E 003°59'0 0.0
2017-Mar-23 22:31N 51°58' E 003°59'0 0.0
2017-Mar-23 21:31N 51°58' E 003°59'0 0.0
2017-Mar-23 20:31N 51°58' E 003°59'0 0.0
2017-Mar-23 19:31N 51°58' E 003°59'1 1.1
2017-Mar-23 18:33N 51°59' E 004°01'2 2.3
2017-Mar-23 17:33N 51°57' E 004°04'0 0.0
2017-Mar-23 16:33N 51°57' E 004°04'0 0.0
2017-Mar-23 15:33N 51°57' E 004°04'0 0.0
2017-Mar-23 14:33N 51°57' E 004°04'0 0.0
2017-Mar-23 13:30N 51°57' E 004°04'0 0.0
2017-Mar-23 12:33N 51°57' E 004°04'0 0.0
2017-Mar-23 11:33N 51°57' E 004°04'0 0.0
2017-Mar-23 10:33N 51°57' E 004°04'0 0.0
2017-Mar-23 09:33N 51°57' E 004°04'0 0.0
2017-Mar-23 08:30N 51°57' E 004°04'0 0.0
2017-Mar-23 07:33N 51°57' E 004°04'0 0.0
2017-Mar-23 06:33N 51°57' E 004°04'0 0.0
2017-Mar-23 05:33N 51°57' E 004°04'0 0.0
2017-Mar-23 04:33N 51°57' E 004°04'0 0.0
2017-Mar-23 03:33N 51°57' E 004°04'0 0.0
2017-Mar-23 02:33N 51°57' E 004°04'0 0.0
2017-Mar-23 01:33N 51°57' E 004°04'0 0.0
2017-Mar-23 00:33N 51°57' E 004°04'0 0.0
2017-Mar-22 23:33N 51°57' E 004°04'0 0.0
2017-Mar-22 22:33N 51°57' E 004°04'0 0.0
2017-Mar-22 21:33N 51°57' E 004°04'0 0.0
2017-Mar-22 20:33N 51°57' E 004°04'0 0.0
2017-Mar-22 19:33N 51°57' E 004°04'0 0.0
2017-Mar-22 18:33N 51°57' E 004°04'2 1.7
2017-Mar-22 17:34N 51°58' E 004°05'1010.2
2017-Mar-22 16:34N 52°01' E 003°49'6 5.7
2017-Mar-22 15:34N 52°00' E 003°40'8 8.1
2017-Mar-22 14:34N 51°55' E 003°31'0 0.2
2017-Mar-22 13:33N 51°55' E 003°30'0 0.0
2017-Mar-22 12:33N 51°55' E 003°30'0 0.0
2017-Mar-22 10:24N 51°55' E 003°30'0 0.0
2017-Mar-22 09:24N 51°55' E 003°30'0 0.0
2017-Mar-22 08:33N 51°55' E 003°30'0 0.0
2017-Mar-22 07:33N 51°55' E 003°30'0 0.0
2017-Mar-22 06:33N 51°55' E 003°30'0 0.0
2017-Mar-22 05:33N 51°55' E 003°30'0 0.0
2017-Mar-22 04:33N 51°55' E 003°30'0 0.1
2017-Mar-22 03:33N 51°55' E 003°30'0 0.1
2017-Mar-22 02:33N 51°55' E 003°30'0 0.0
2017-Mar-22 01:33N 51°55' E 003°30'0 0.0
2017-Mar-22 00:33N 51°55' E 003°31'0 0.0
2017-Mar-21 23:30N 51°55' E 003°31'0 0.0
2017-Mar-21 22:33N 51°55' E 003°30'0 0.0
2017-Mar-21 21:33N 51°55' E 003°31'0 0.0
2017-Mar-21 20:30N 51°55' E 003°31'0 0.0
2017-Mar-21 19:24N 51°55' E 003°31'0 0.0
2017-Mar-21 18:27N 51°55' E 003°31'1 1.9
2017-Mar-21 18:00N 51°54' E 003°30'1 2.0 210 / 261011.3 5.4 7.7 2.2 7.0
2017-Mar-21 17:33N 51°55' E 003°31'0 0.0
2017-Mar-21 16:33N 51°55' E 003°31'0 0.2
2017-Mar-21 14:33N 51°54' E 003°30'7 6.5
2017-Mar-21 13:33N 51°53' E 003°20'15 7.4
2017-Mar-21 11:33N 51°49' E 002°57'19 8.5
2017-Mar-21 09:20N 51°40' E 002°30'7 8.7
2017-Mar-21 08:33N 51°35' E 002°23'9 9.0
2017-Mar-21 07:33N 51°29' E 002°13'1010.0
2017-Mar-21 06:34N 51°22' E 002°01'1119.1
2017-Mar-21 06:00N 51°12' E 001°54'3 7.0 260 / 211007.710.8 6.8 2.5 8.4
2017-Mar-21 05:33N 51°14' E 001°50'1211.7
2017-Mar-21 04:34N 51°05' E 001°39'1212.2
2017-Mar-21 03:33N 50°54' E 001°28'1111.3
2017-Mar-21 02:33N 50°44' E 001°22'2911.4
2017-Mar-21 00:00N 50°24' E 000°48'13 8.0 260 / 221008.210.8 9.9 6.1 8.9
2017-Mar-20 22:23N 50°22' E 000°28'8 9.6
2017-Mar-20 21:33N 50°19' E 000°16'9 8.9
2017-Mar-20 20:34N 50°17' E 000°03'7 7.2
2017-Mar-20 19:33N 50°10' W 000°02'8 7.6
2017-Mar-20 18:33N 50°03' W 000°04'915.7
2017-Mar-20 18:00N 49°54' W 000°06'1 1.7 230 / 281007.0 2.2 11.6 7.7 8.6
2017-Mar-20 17:33N 49°55' W 000°06'8 8.4
2017-Mar-20 16:34N 49°46' W 000°08'1110.9
2017-Mar-20 15:33N 49°36' W 000°04'1111.5
2017-Mar-20 14:33N 49°28' E 000°08'1 0.6
2017-Mar-20 13:33N 49°28' E 000°09'0 0.0
2017-Mar-20 12:33N 49°28' E 000°09'0 0.0
2017-Mar-20 11:33N 49°28' E 000°09'0 0.0
2017-Mar-20 10:33N 49°28' E 000°09'0 0.0
2017-Mar-20 09:33N 49°28' E 000°09'0 0.0
2017-Mar-20 08:33N 49°28' E 000°09'0 0.0
2017-Mar-20 07:33N 49°28' E 000°09'0 0.0
2017-Mar-20 06:33N 49°28' E 000°09'0 0.0
2017-Mar-20 05:33N 49°28' E 000°09'0 0.0
2017-Mar-20 04:33N 49°28' E 000°09'0 0.0
2017-Mar-20 03:33N 49°28' E 000°09'0 0.0
2017-Mar-20 02:33N 49°28' E 000°09'0 0.0
2017-Mar-20 01:33N 49°28' E 000°09'0 0.0
2017-Mar-20 00:33N 49°28' E 000°09'0 0.0
2017-Mar-19 23:33N 49°28' E 000°09'0 0.0
2017-Mar-19 22:33N 49°28' E 000°09'0 0.0
2017-Mar-19 21:33N 49°28' E 000°09'0 0.0
2017-Mar-19 20:33N 49°28' E 000°09'0 0.0
2017-Mar-19 19:33N 49°28' E 000°09'0 0.0
2017-Mar-19 18:33N 49°28' E 000°09'0 0.0
2017-Mar-19 17:33N 49°28' E 000°09'0 0.0
2017-Mar-19 16:33N 49°28' E 000°09'0 0.0
2017-Mar-19 15:33N 49°28' E 000°09'0 0.0
2017-Mar-19 14:33N 49°28' E 000°09'0 0.0
2017-Mar-19 13:33N 49°28' E 000°09'0 0.0
2017-Mar-19 12:33N 49°28' E 000°09'0 0.0
2017-Mar-19 11:33N 49°28' E 000°09'0 0.0
2017-Mar-19 10:33N 49°28' E 000°09'0 0.0
2017-Mar-19 09:33N 49°28' E 000°09'0 0.0
2017-Mar-19 08:33N 49°28' E 000°09'0 0.0
2017-Mar-19 07:33N 49°28' E 000°09'0 0.0
2017-Mar-19 06:33N 49°28' E 000°09'0 0.0
2017-Mar-19 05:33N 49°28' E 000°09'0 0.0
2017-Mar-19 04:33N 49°28' E 000°09'0 0.0
2017-Mar-19 03:33N 49°28' E 000°09'0 0.0
2017-Mar-19 02:33N 49°28' E 000°09'0 0.0
2017-Mar-19 01:33N 49°28' E 000°09'0 0.0
2017-Mar-19 00:33N 49°28' E 000°09'0 0.0
2017-Mar-18 23:33N 49°28' E 000°09'0 0.0
2017-Mar-18 22:33N 49°28' E 000°09'0 0.0
2017-Mar-18 21:33N 49°28' E 000°09'0 0.0
2017-Mar-18 20:33N 49°28' E 000°09'0 0.0
2017-Mar-18 19:33N 49°28' E 000°09'0 0.0
2017-Mar-18 18:33N 49°28' E 000°09'0 0.0
2017-Mar-18 17:33N 49°28' E 000°09'0 0.0
2017-Mar-18 16:33N 49°28' E 000°09'0 0.0
2017-Mar-18 15:33N 49°28' E 000°09'0 0.0
2017-Mar-18 14:33N 49°28' E 000°09'0 0.0
2017-Mar-18 13:33N 49°28' E 000°09'0 0.0
2017-Mar-18 12:33N 49°28' E 000°09'0 0.0
2017-Mar-18 11:33N 49°28' E 000°09'0 0.0
2017-Mar-18 10:33N 49°28' E 000°09'0 0.0
2017-Mar-18 09:33N 49°28' E 000°09'0 0.1
2017-Mar-18 08:34N 49°27' E 000°09'6 6.1
2017-Mar-18 07:34N 49°30' E 000°01'1211.6
2017-Mar-18 06:33N 49°38' W 000°13'1 0.7
2017-Mar-18 05:31N 49°37' W 000°14'0 0.1
2017-Mar-18 04:31N 49°37' W 000°13'0 0.1
2017-Mar-18 03:31N 49°37' W 000°14'0 0.0
2017-Mar-18 02:31N 49°37' W 000°13'0 0.0
2017-Mar-18 01:31N 49°37' W 000°14'0 0.0
2017-Mar-18 00:31N 49°37' W 000°14'0 0.1
2017-Mar-17 23:31N 49°37' W 000°14'0 0.0
2017-Mar-17 22:34N 49°37' W 000°14'0 0.0
2017-Mar-17 21:34N 49°37' W 000°14'0 0.0
2017-Mar-17 20:31N 49°37' W 000°14'0 0.1
2017-Mar-17 19:34N 49°37' W 000°14'0 0.2
2017-Mar-17 18:30N 49°37' W 000°14'5 5.5
2017-Mar-17 17:33N 49°38' W 000°22'3 2.5
2017-Mar-17 16:34N 49°35' W 000°24'5 5.4
2017-Mar-17 15:33N 49°36' W 000°32'1 1.3
2017-Mar-17 14:33N 49°37' W 000°31'1 1.2
2017-Mar-17 13:33N 49°39' W 000°31'2 1.5
2017-Mar-17 12:33N 49°40' W 000°33'4 7.6
2017-Mar-17 12:00N 49°36' W 000°36'510.8 290 / 121023.510.8 9.3 2.6 8.1
2017-Mar-17 11:33N 49°41' W 000°35'3 2.6
2017-Mar-17 10:33N 49°42' W 000°39'3 3.0
2017-Mar-17 09:33N 49°42' W 000°44'8 8.0
2017-Mar-17 08:33N 49°45' W 000°55'8 7.7
2017-Mar-17 07:33N 49°49' W 001°06'6 6.1
2017-Mar-17 06:33N 49°51' W 001°15'4 4.3
2017-Mar-17 05:33N 49°52' W 001°21'3 3.1
2017-Mar-17 04:33N 49°53' W 001°26'9 9.1
2017-Mar-17 03:33N 49°54' W 001°40'1211.9
2017-Mar-17 02:33N 49°53' W 001°58'3014.6
2017-Mar-17 00:30N 49°49' W 002°45'919.0
2017-Mar-17 00:00N 49°42' W 002°54'817.1 320 / 111022.710.8 17.4-14.6 9.4
2017-Mar-16 23:32N 49°44' W 003°06'1915.3
2017-Mar-16 22:18N 49°34' W 003°31'1415.4
2017-Mar-16 21:25N 49°27' W 003°49'4616.1
2017-Mar-16 18:33N 49°03' W 004°49'1221.1
2017-Mar-16 18:00N 48°54' W 005°00'716.4 340 / 201022.210.8 10.4 6.510.2
2017-Mar-16 17:33N 48°55' W 005°11'1716.2
2017-Mar-16 16:32N 48°47' W 005°32'6716.0
2017-Mar-16 12:21N 47°48' W 006°21'618.4
2017-Mar-16 12:00N 47°42' W 006°24'512.4 090 / 121023.7 5.4 12.6 6.810.7
2017-Mar-16 11:33N 47°38' W 006°29'  
Track history (hours):
 
Tides and Currents Weather Stations Pressure Air Temp Water Temp Dewpoint Dewpoint Depression Visibility Wind Speed Wind Dir Waves Ship Positions

Hamburg Express

Last reported at 2017-Mar-26 10:33 UTC. Time now 2017-Mar-26 11:13 UTC.
Position N 53°18' E 004°37'.

Length 366 m; draft 12.9 m.

Type: Cargo ship. MMSI: 218774000.

Date/timePositionNaut miles runAvg speedWind from/ knotsBaromVisibWave heightAir tempDewpointWater temp
2017-Mar-26 10:33N 53°18' E 004°37'1313.1
2017-Mar-26 09:33N 53°06' E 004°27'1313.3
2017-Mar-26 08:33N 52°55' E 004°16'1313.2
2017-Mar-26 07:33N 52°43' E 004°06'1413.6
2017-Mar-26 06:33N 52°31' E 003°55'1414.1
2017-Mar-26 05:33N 52°17' E 003°52'1413.9
2017-Mar-26 04:33N 52°03' E 003°54'8 8.2
2017-Mar-26 03:34N 51°58' E 004°04'3 2.6
2017-Mar-26 02:34N 51°58' E 004°00'1 0.6
2017-Mar-26 01:34N 51°57' E 003°59'0 0.0
2017-Mar-26 00:33N 51°57' E 003°59'0 0.0
2017-Mar-25 23:33N 51°57' E 003°59'0 0.0
2017-Mar-25 22:33N 51°57' E 003°59'0 0.0
2017-Mar-25 21:33N 51°57' E 003°59'0 0.0
2017-Mar-25 20:33N 51°57' E 003°59'0 0.0
2017-Mar-25 19:33N 51°57' E 003°59'0 0.0
2017-Mar-25 18:33N 51°57' E 003°59'0 0.0
2017-Mar-25 17:33N 51°57' E 003°59'0 0.0
2017-Mar-25 16:33N 51°57' E 003°59'0 0.0
2017-Mar-25 15:33N 51°57' E 003°59'0 0.0
2017-Mar-25 14:33N 51°57' E 003°59'0 0.0
2017-Mar-25 13:33N 51°57' E 003°59'0 0.0
2017-Mar-25 12:33N 51°57' E 003°59'0 0.0
2017-Mar-25 11:33N 51°57' E 003°59'0 0.0
2017-Mar-25 10:33N 51°57' E 003°59'0 0.0
2017-Mar-25 09:33N 51°57' E 003°59'0 0.0
2017-Mar-25 08:33N 51°57' E 003°59'0 0.0
2017-Mar-25 07:33N 51°57' E 003°59'0 0.0
2017-Mar-25 06:33N 51°57' E 003°59'0 0.0
2017-Mar-25 05:33N 51°57' E 003°59'0 0.0
2017-Mar-25 04:33N 51°57' E 003°59'0 0.0
2017-Mar-25 03:33N 51°57' E 003°59'0 0.0
2017-Mar-25 02:33N 51°57' E 003°59'0 0.0
2017-Mar-25 01:33N 51°57' E 003°59'0 0.0
2017-Mar-25 00:33N 51°57' E 003°59'0 0.0
2017-Mar-24 23:33N 51°57' E 003°59'0 0.0
2017-Mar-24 22:33N 51°57' E 003°59'1 1.4
2017-Mar-24 21:33N 51°58' E 003°60'0 0.3
2017-Mar-24 20:31N 51°58' E 003°59'0 0.0
2017-Mar-24 19:31N 51°58' E 003°59'0 0.0
2017-Mar-24 18:31N 51°58' E 003°59'0 0.0
2017-Mar-24 17:31N 51°58' E 003°59'0 0.0
2017-Mar-24 16:31N 51°58' E 003°59'0 0.0
2017-Mar-24 15:31N 51°58' E 003°59'0 0.0
2017-Mar-24 14:31N 51°58' E 003°59'0 0.0
2017-Mar-24 13:31N 51°58' E 003°59'0 0.0
2017-Mar-24 12:31N 51°58' E 003°59'0 0.0
2017-Mar-24 11:31N 51°58' E 003°59'0 0.0
2017-Mar-24 10:31N 51°58' E 003°59'0 0.0
2017-Mar-24 09:31N 51°58' E 003°59'0 0.0
2017-Mar-24 08:31N 51°58' E 003°59'0 0.0
2017-Mar-24 07:31N 51°58' E 003°59'0 0.0
2017-Mar-24 06:28N 51°58' E 003°59'0 0.0
2017-Mar-24 05:31N 51°58' E 003°59'0 0.0
2017-Mar-24 04:31N 51°58' E 003°59'0 0.0
2017-Mar-24 03:31N 51°58' E 003°59'0 0.0
2017-Mar-24 02:31N 51°58' E 003°59'0 0.0
2017-Mar-24 01:31N 51°58' E 003°59'0 0.0
2017-Mar-24 00:31N 51°58' E 003°59'0 0.0
2017-Mar-23 23:31N 51°58' E 003°59'0 0.0
2017-Mar-23 22:31N 51°58' E 003°59'0 0.0
2017-Mar-23 21:31N 51°58' E 003°59'0 0.0
2017-Mar-23 20:31N 51°58' E 003°59'0 0.0
2017-Mar-23 19:31N 51°58' E 003°59'1 1.1
2017-Mar-23 18:33N 51°59' E 004°01'2 2.3
2017-Mar-23 17:33N 51°57' E 004°04'0 0.0
2017-Mar-23 16:33N 51°57' E 004°04'0 0.0
2017-Mar-23 15:33N 51°57' E 004°04'0 0.0
2017-Mar-23 14:33N 51°57' E 004°04'0 0.0
2017-Mar-23 13:30N 51°57' E 004°04'0 0.0
2017-Mar-23 12:33N 51°57' E 004°04'0 0.0
2017-Mar-23 11:33N 51°57' E 004°04'0 0.0
2017-Mar-23 10:33N 51°57' E 004°04'0 0.0
2017-Mar-23 09:33N 51°57' E 004°04'0 0.0
2017-Mar-23 08:30N 51°57' E 004°04'0 0.0
2017-Mar-23 07:33N 51°57' E 004°04'0 0.0
2017-Mar-23 06:33N 51°57' E 004°04'0 0.0
2017-Mar-23 05:33N 51°57' E 004°04'0 0.0
2017-Mar-23 04:33N 51°57' E 004°04'0 0.0
2017-Mar-23 03:33N 51°57' E 004°04'0 0.0
2017-Mar-23 02:33N 51°57' E 004°04'0 0.0
2017-Mar-23 01:33N 51°57' E 004°04'0 0.0
2017-Mar-23 00:33N 51°57' E 004°04'0 0.0
2017-Mar-22 23:33N 51°57' E 004°04'0 0.0
2017-Mar-22 22:33N 51°57' E 004°04'0 0.0
2017-Mar-22 21:33N 51°57' E 004°04'0 0.0
2017-Mar-22 20:33N 51°57' E 004°04'0 0.0
2017-Mar-22 19:33N 51°57' E 004°04'0 0.0
2017-Mar-22 18:33N 51°57' E 004°04'2 1.7
2017-Mar-22 17:34N 51°58' E 004°05'1010.2
2017-Mar-22 16:34N 52°01' E 003°49'6 5.7
2017-Mar-22 15:34N 52°00' E 003°40'8 8.1
2017-Mar-22 14:34N 51°55' E 003°31'0 0.2
2017-Mar-22 13:33N 51°55' E 003°30'0 0.0
2017-Mar-22 12:33N 51°55' E 003°30'0 0.0
2017-Mar-22 10:24N 51°55' E 003°30'0 0.0
2017-Mar-22 09:24N 51°55' E 003°30'0 0.0
2017-Mar-22 08:33N 51°55' E 003°30'0 0.0
2017-Mar-22 07:33N 51°55' E 003°30'0 0.0
2017-Mar-22 06:33N 51°55' E 003°30'0 0.0
2017-Mar-22 05:33N 51°55' E 003°30'0 0.0
2017-Mar-22 04:33N 51°55' E 003°30'0 0.1
2017-Mar-22 03:33N 51°55' E 003°30'0 0.1
2017-Mar-22 02:33N 51°55' E 003°30'0 0.0
2017-Mar-22 01:33N 51°55' E 003°30'0 0.0
2017-Mar-22 00:33N 51°55' E 003°31'0 0.0
2017-Mar-21 23:30N 51°55' E 003°31'0 0.0
2017-Mar-21 22:33N 51°55' E 003°30'0 0.0
2017-Mar-21 21:33N 51°55' E 003°31'0 0.0
2017-Mar-21 20:30N 51°55' E 003°31'0 0.0
2017-Mar-21 19:24N 51°55' E 003°31'0 0.0
2017-Mar-21 18:27N 51°55' E 003°31'1 1.9
2017-Mar-21 18:00N 51°54' E 003°30'1 2.0 210 / 261011.3 5.4 7.7 2.2 7.0
2017-Mar-21 17:33N 51°55' E 003°31'0 0.0
2017-Mar-21 16:33N 51°55' E 003°31'0 0.2
2017-Mar-21 14:33N 51°54' E 003°30'7 6.5
2017-Mar-21 13:33N 51°53' E 003°20'15 7.4
2017-Mar-21 11:33N 51°49' E 002°57'19 8.5
2017-Mar-21 09:20N 51°40' E 002°30'7 8.7
2017-Mar-21 08:33N 51°35' E 002°23'9 9.0
2017-Mar-21 07:33N 51°29' E 002°13'1010.0
2017-Mar-21 06:34N 51°22' E 002°01'1119.1
2017-Mar-21 06:00N 51°12' E 001°54'3 7.0 260 / 211007.710.8 6.8 2.5 8.4
2017-Mar-21 05:33N 51°14' E 001°50'1211.7
2017-Mar-21 04:34N 51°05' E 001°39'1212.2
2017-Mar-21 03:33N 50°54' E 001°28'1111.3
2017-Mar-21 02:33N 50°44' E 001°22'2911.4
2017-Mar-21 00:00N 50°24' E 000°48'13 8.0 260 / 221008.210.8 9.9 6.1 8.9
2017-Mar-20 22:23N 50°22' E 000°28'8 9.6
2017-Mar-20 21:33N 50°19' E 000°16'9 8.9
2017-Mar-20 20:34N 50°17' E 000°03'7 7.2
2017-Mar-20 19:33N 50°10' W 000°02'8 7.6
2017-Mar-20 18:33N 50°03' W 000°04'915.7
2017-Mar-20 18:00N 49°54' W 000°06'1 1.7 230 / 281007.0 2.2 11.6 7.7 8.6
2017-Mar-20 17:33N 49°55' W 000°06'8 8.4
2017-Mar-20 16:34N 49°46' W 000°08'1110.9
2017-Mar-20 15:33N 49°36' W 000°04'1111.5
2017-Mar-20 14:33N 49°28' E 000°08'1 0.6
2017-Mar-20 13:33N 49°28' E 000°09'0 0.0
2017-Mar-20 12:33N 49°28' E 000°09'0 0.0
2017-Mar-20 11:33N 49°28' E 000°09'0 0.0
2017-Mar-20 10:33N 49°28' E 000°09'0 0.0
2017-Mar-20 09:33N 49°28' E 000°09'0 0.0
2017-Mar-20 08:33N 49°28' E 000°09'0 0.0
2017-Mar-20 07:33N 49°28' E 000°09'0 0.0
2017-Mar-20 06:33N 49°28' E 000°09'0 0.0
2017-Mar-20 05:33N 49°28' E 000°09'0 0.0
2017-Mar-20 04:33N 49°28' E 000°09'0 0.0
2017-Mar-20 03:33N 49°28' E 000°09'0 0.0
2017-Mar-20 02:33N 49°28' E 000°09'0 0.0
2017-Mar-20 01:33N 49°28' E 000°09'0 0.0
2017-Mar-20 00:33N 49°28' E 000°09'0 0.0
2017-Mar-19 23:33N 49°28' E 000°09'0 0.0
2017-Mar-19 22:33N 49°28' E 000°09'0 0.0
2017-Mar-19 21:33N 49°28' E 000°09'0 0.0
2017-Mar-19 20:33N 49°28' E 000°09'0 0.0
2017-Mar-19 19:33N 49°28' E 000°09'0 0.0
2017-Mar-19 18:33N 49°28' E 000°09'0 0.0
2017-Mar-19 17:33N 49°28' E 000°09'0 0.0
2017-Mar-19 16:33N 49°28' E 000°09'0 0.0
2017-Mar-19 15:33N 49°28' E 000°09'0 0.0
2017-Mar-19 14:33N 49°28' E 000°09'0 0.0
2017-Mar-19 13:33N 49°28' E 000°09'0 0.0
2017-Mar-19 12:33N 49°28' E 000°09'0 0.0
2017-Mar-19 11:33N 49°28' E 000°09'0 0.0
2017-Mar-19 10:33N 49°28' E 000°09'0 0.0
2017-Mar-19 09:33N 49°28' E 000°09'0 0.0
2017-Mar-19 08:33N 49°28' E 000°09'0 0.0
2017-Mar-19 07:33N 49°28' E 000°09'0 0.0
2017-Mar-19 06:33N 49°28' E 000°09'0 0.0
2017-Mar-19 05:33N 49°28' E 000°09'0 0.0
2017-Mar-19 04:33N 49°28' E 000°09'0 0.0
2017-Mar-19 03:33N 49°28' E 000°09'0 0.0
2017-Mar-19 02:33N 49°28' E 000°09'0 0.0
2017-Mar-19 01:33N 49°28' E 000°09'0 0.0
2017-Mar-19 00:33N 49°28' E 000°09'0 0.0
2017-Mar-18 23:33N 49°28' E 000°09'0 0.0
2017-Mar-18 22:33N 49°28' E 000°09'0 0.0
2017-Mar-18 21:33N 49°28' E 000°09'0 0.0
2017-Mar-18 20:33N 49°28' E 000°09'0 0.0
2017-Mar-18 19:33N 49°28' E 000°09'0 0.0
2017-Mar-18 18:33N 49°28' E 000°09'0 0.0
2017-Mar-18 17:33N 49°28' E 000°09'0 0.0
2017-Mar-18 16:33N 49°28' E 000°09'0 0.0
2017-Mar-18 15:33N 49°28' E 000°09'0 0.0
2017-Mar-18 14:33N 49°28' E 000°09'0 0.0
2017-Mar-18 13:33N 49°28' E 000°09'0 0.0
2017-Mar-18 12:33N 49°28' E 000°09'0 0.0
2017-Mar-18 11:33N 49°28' E 000°09'0 0.0
2017-Mar-18 10:33N 49°28' E 000°09'0 0.0
2017-Mar-18 09:33N 49°28' E 000°09'0 0.1
2017-Mar-18 08:34N 49°27' E 000°09'6 6.1
2017-Mar-18 07:34N 49°30' E 000°01'1211.6
2017-Mar-18 06:33N 49°38' W 000°13'1 0.7
2017-Mar-18 05:31N 49°37' W 000°14'0 0.1
2017-Mar-18 04:31N 49°37' W 000°13'0 0.1
2017-Mar-18 03:31N 49°37' W 000°14'0 0.0
2017-Mar-18 02:31N 49°37' W 000°13'0 0.0
2017-Mar-18 01:31N 49°37' W 000°14'0 0.0
2017-Mar-18 00:31N 49°37' W 000°14'0 0.1
2017-Mar-17 23:31N 49°37' W 000°14'0 0.0
2017-Mar-17 22:34N 49°37' W 000°14'0 0.0
2017-Mar-17 21:34N 49°37' W 000°14'0 0.0
2017-Mar-17 20:31N 49°37' W 000°14'0 0.1
2017-Mar-17 19:34N 49°37' W 000°14'0 0.2
2017-Mar-17 18:30N 49°37' W 000°14'5 5.5
2017-Mar-17 17:33N 49°38' W 000°22'3 2.5
2017-Mar-17 16:34N 49°35' W 000°24'5 5.4
2017-Mar-17 15:33N 49°36' W 000°32'1 1.3
2017-Mar-17 14:33N 49°37' W 000°31'1 1.2
2017-Mar-17 13:33N 49°39' W 000°31'2 1.5
2017-Mar-17 12:33N 49°40' W 000°33'4 7.6
2017-Mar-17 12:00N 49°36' W 000°36'510.8 290 / 121023.510.8 9.3 2.6 8.1
2017-Mar-17 11:33N 49°41' W 000°35'3 2.6
2017-Mar-17 10:33N 49°42' W 000°39'3 3.0
2017-Mar-17 09:33N 49°42' W 000°44'8 8.0
2017-Mar-17 08:33N 49°45' W 000°55'8 7.7
2017-Mar-17 07:33N 49°49' W 001°06'6 6.1
2017-Mar-17 06:33N 49°51' W 001°15'4 4.3
2017-Mar-17 05:33N 49°52' W 001°21'3 3.1
2017-Mar-17 04:33N 49°53' W 001°26'9 9.1
2017-Mar-17 03:33N 49°54' W 001°40'1211.9
2017-Mar-17 02:33N 49°53' W 001°58'3014.6
2017-Mar-17 00:30N 49°49' W 002°45'919.0
2017-Mar-17 00:00N 49°42' W 002°54'817.1 320 / 111022.710.8 17.4-14.6 9.4
2017-Mar-16 23:32N 49°44' W 003°06'1915.3
2017-Mar-16 22:18N 49°34' W 003°31'1415.4
2017-Mar-16 21:25N 49°27' W 003°49'4616.1
2017-Mar-16 18:33N 49°03' W 004°49'1221.1
2017-Mar-16 18:00N 48°54' W 005°00'716.4 340 / 201022.210.8 10.4 6.510.2
2017-Mar-16 17:33N 48°55' W 005°11'1716.2
2017-Mar-16 16:32N 48°47' W 005°32'6716.0
2017-Mar-16 12:21N 47°48' W 006°21'618.4
2017-Mar-16 12:00N 47°42' W 006°24'512.4 090 / 121023.7 5.4 12.6 6.810.7
2017-Mar-16 11:33N 47°38' W 006°29'  

Dump ship's entire track history